Time;durP1;ratioP1;P1;durP2;ratioP2;P2;SDS_P1;SDS_P2;PMS_P1;PMS_P2;Temp;Humidity;BMP_temperature;BMP_pressure;BME280_temperature;BME280_humidity;BME280_pressure;Samples;Min_cycle;Max_cycle;Signal;HPM_P1;HPM_P2
2021/01/02 00:01:49;;;;;;;28.90;13.53;;;;;;;1.92;100.00;95608.56;4998052;28;20221;-73
2021/01/02 00:04:27;;;;;;;25.17;13.43;;;;;;;1.99;100.00;95609.66;4997370;28;20226;-73
2021/01/02 00:07:21;;;;;;;29.97;13.37;;;;;;;1.96;100.00;95615.94;4996756;28;20287;-73
2021/01/02 00:09:51;;;;;;;25.80;13.33;;;;;;;1.91;100.00;95606.94;4996591;28;20217;-73
2021/01/02 00:12:37;;;;;;;28.63;14.00;;;;;;;1.90;100.00;95615.69;4997078;28;20211;-73
2021/01/02 00:15:05;;;;;;;29.90;13.70;;;;;;;1.96;100.00;95610.75;4996226;28;20234;-73
2021/01/02 00:17:58;;;;;;;27.50;13.27;;;;;;;1.97;100.00;95608.97;4997679;28;20405;-73
2021/01/02 00:20:53;;;;;;;29.13;14.13;;;;;;;1.95;100.00;95608.31;4997256;28;20222;-73
2021/01/02 00:23:41;;;;;;;29.00;13.63;;;;;;;2.01;100.00;95608.56;4998439;28;20233;-73
2021/01/02 00:26:16;;;;;;;28.67;13.63;;;;;;;1.99;100.00;95609.66;4996597;28;21171;-73
2021/01/02 00:28:46;;;;;;;29.73;13.60;;;;;;;1.85;100.00;95608.31;4997542;28;20216;-73
2021/01/02 00:31:34;;;;;;;27.53;13.57;;;;;;;1.79;100.00;95615.84;4998035;28;20202;-73
2021/01/02 00:34:22;;;;;;;31.13;14.60;;;;;;;1.74;100.00;95615.44;4997386;28;20250;-73
2021/01/02 00:36:59;;;;;;;27.57;13.87;;;;;;;1.76;100.00;95621.31;4997016;28;20981;-73
2021/01/02 00:39:35;;;;;;;30.77;14.80;;;;;;;1.68;100.00;95626.41;4996529;28;20213;-73
2021/01/02 00:42:02;;;;;;;29.27;13.83;;;;;;;1.71;100.00;95622.72;4996685;28;20213;-73
2021/01/02 00:44:30;;;;;;;28.57;14.00;;;;;;;1.76;100.00;95623.91;4996620;28;20230;-73
2021/01/02 00:46:57;;;;;;;28.80;14.40;;;;;;;1.73;100.00;95623.38;4995797;28;20233;-73
2021/01/02 00:49:25;;;;;;;27.23;13.20;;;;;;;1.72;100.00;95622.56;4996865;28;20678;-73
2021/01/02 00:52:08;;;;;;;31.73;14.80;;;;;;;1.69;100.00;95622.81;4997334;28;20203;-73
2021/01/02 00:54:46;;;;;;;30.73;13.67;;;;;;;1.70;100.00;95624.47;4997194;28;20226;-73
2021/01/02 00:57:34;;;;;;;32.50;15.00;;;;;;;1.65;100.00;95624.06;4996523;28;20207;-73
2021/01/02 01:00:06;;;;;;;27.77;14.03;;;;;;;1.70;100.00;95615.88;4995736;28;20221;-73
2021/01/02 01:02:56;;;;;;;28.87;13.37;;;;;;;1.64;100.00;95622.41;4996232;28;20241;-73
2021/01/02 01:05:23;;;;;;;29.33;13.83;;;;;;;1.65;100.00;95621.47;4995559;28;21467;-73
2021/01/02 01:07:54;;;;;;;28.50;14.10;;;;;;;1.70;100.00;95626.25;4996134;28;20254;-73
2021/01/02 01:10:23;;;;;;;29.63;14.30;;;;;;;1.68;100.00;95633.34;4995795;28;20210;-73
2021/01/02 01:12:57;;;;;;;30.20;14.97;;;;;;;1.66;100.00;95638.69;4996403;28;20229;-73
2021/01/02 01:15:23;;;;;;;30.33;13.97;;;;;;;1.66;100.00;95636.09;4995658;28;20609;-73
2021/01/02 01:18:01;;;;;;;32.17;14.90;;;;;;;1.67;100.00;95650.72;4996630;28;20202;-73
2021/01/02 01:20:29;;;;;;;31.47;14.03;;;;;;;1.71;100.00;95638.28;4996653;28;20263;-73
2021/01/02 01:23:12;;;;;;;30.93;14.87;;;;;;;1.72;100.00;95645.94;4997381;28;20245;-73
2021/01/02 01:25:52;;;;;;;31.13;14.13;;;;;;;1.66;100.00;95636.09;4995943;28;20251;-73
2021/01/02 01:28:23;;;;;;;33.43;14.97;;;;;;;1.60;100.00;95639.22;4997561;28;20745;-73
2021/01/02 01:30:53;;;;;;;32.60;15.03;;;;;;;1.54;100.00;95637.22;4996093;28;20212;-73
2021/01/02 01:33:26;;;;;;;33.33;15.70;;;;;;;1.52;100.00;95641.69;4996759;28;20618;-73
2021/01/02 01:35:57;;;;;;;37.03;16.13;;;;;;;1.42;100.00;95646.06;4995956;28;20209;-73
2021/01/02 01:38:26;;;;;;;34.43;16.17;;;;;;;1.53;100.00;95642.53;4997460;28;20210;-73
2021/01/02 01:40:58;;;;;;;32.47;14.60;;;;;;;1.45;100.00;95645.81;4996915;28;20212;-73
2021/01/02 01:43:36;;;;;;;33.13;15.10;;;;;;;1.58;100.00;95648.09;4996705;28;20341;-73
2021/01/02 01:46:14;;;;;;;31.23;15.43;;;;;;;1.47;100.00;95654.25;4995030;28;20230;-73
2021/01/02 01:49:04;;;;;;;32.50;14.47;;;;;;;1.43;100.00;95652.09;4995439;28;20206;-73
2021/01/02 01:51:39;;;;;;;31.27;14.43;;;;;;;1.44;100.00;95651.94;4996024;28;20202;-73
2021/01/02 01:54:36;;;;;;;35.77;15.10;;;;;;;1.39;100.00;95655.94;4995465;28;20256;-73
2021/01/02 01:57:04;;;;;;;32.60;15.13;;;;;;;1.48;100.00;95648.13;4993447;28;20229;-73
2021/01/02 01:59:58;;;;;;;32.37;14.77;;;;;;;1.55;100.00;95651.00;4995881;28;20206;-73
2021/01/02 02:02:57;;;;;;;32.60;15.27;;;;;;;1.67;100.00;95649.88;4995289;28;20210;-73
2021/01/02 02:05:24;;;;;;;31.23;14.57;;;;;;;1.63;100.00;95649.34;4995891;28;20218;-73
2021/01/02 02:08:00;;;;;;;34.63;14.80;;;;;;;1.71;100.00;95656.47;4997120;28;21437;-73
2021/01/02 02:10:29;;;;;;;36.77;15.70;;;;;;;1.66;100.00;95651.66;4995523;28;20202;-73
2021/01/02 02:12:58;;;;;;;31.87;15.13;;;;;;;1.70;100.00;95647.03;4994305;28;20637;-73
2021/01/02 02:15:26;;;;;;;30.33;14.00;;;;;;;1.72;100.00;95656.31;4993962;28;20209;-73
2021/01/02 02:17:54;;;;;;;32.77;14.47;;;;;;;1.73;100.00;95646.75;4994093;28;20226;-73
2021/01/02 02:20:23;;;;;;;32.07;14.90;;;;;;;1.57;100.00;95649.91;4994387;28;20581;-73
2021/01/02 02:23:02;;;;;;;32.00;15.00;;;;;;;1.56;100.00;95656.03;4993312;28;20233;-73
2021/01/02 02:25:37;;;;;;;30.03;13.57;;;;;;;1.61;100.00;95655.66;4995072;28;20210;-73
2021/01/02 02:28:09;;;;;;;30.43;14.53;;;;;;;1.62;100.00;95650.31;4996175;28;20236;-73
2021/01/02 02:30:43;;;;;;;30.93;15.07;;;;;;;1.70;100.00;95655.63;4996711;28;20213;-73
2021/01/02 02:33:17;;;;;;;30.20;14.40;;;;;;;1.68;100.00;95644.56;4996310;28;20722;-73
2021/01/02 02:35:44;;;;;;;31.23;14.90;;;;;;;1.64;100.00;95647.56;4995937;28;20206;-73
2021/01/02 02:38:12;;;;;;;34.60;14.67;;;;;;;1.63;100.00;95641.56;4997714;28;20202;-73
2021/01/02 02:40:38;;;;;;;28.43;14.00;;;;;;;1.58;100.00;95645.50;5000662;28;20234;-73
2021/01/02 02:43:08;;;;;;;29.70;14.60;;;;;;;1.67;100.00;95639.50;4999492;28;20238;-73
2021/01/02 02:45:35;;;;;;;29.00;14.23;;;;;;;1.70;100.00;95645.25;4998956;28;20213;-73
2021/01/02 02:48:05;;;;;;;31.80;14.57;;;;;;;1.62;100.00;95647.72;4999727;28;20226;-73
2021/01/02 02:50:33;;;;;;;27.67;13.03;;;;;;;1.64;100.00;95650.16;4999818;28;20210;-73
2021/01/02 02:53:05;;;;;;;29.43;14.27;;;;;;;1.67;100.00;95650.72;4999370;28;20238;-73
2021/01/02 02:55:31;;;;;;;26.93;13.33;;;;;;;1.77;100.00;95651.53;4999410;28;20252;-73
2021/01/02 02:57:59;;;;;;;30.60;14.20;;;;;;;1.68;100.00;95651.53;4999883;28;20209;-74
2021/01/02 03:00:26;;;;;;;29.67;14.63;;;;;;;1.71;100.00;95644.28;4999431;28;20552;-73
2021/01/02 03:02:52;;;;;;;32.47;15.00;;;;;;;1.64;100.00;95645.78;4999310;28;20257;-73
2021/01/02 03:05:18;;;;;;;32.30;15.37;;;;;;;1.67;100.00;95639.50;4998460;28;20298;-73
2021/01/02 03:07:46;;;;;;;32.30;15.13;;;;;;;1.61;100.00;95646.06;4998799;28;21185;-73
2021/01/02 03:10:14;;;;;;;32.83;14.87;;;;;;;1.59;100.00;95649.75;4999019;28;20213;-73
2021/01/02 03:12:41;;;;;;;31.93;14.37;;;;;;;1.59;100.00;95644.56;4999255;28;20229;-73
2021/01/02 03:15:09;;;;;;;31.27;13.77;;;;;;;1.69;100.00;95642.78;4998105;28;20281;-73
2021/01/02 03:17:36;;;;;;;31.93;14.37;;;;;;;1.51;100.00;95640.06;4998593;28;20207;-74
2021/01/02 03:20:04;;;;;;;30.17;14.37;;;;;;;1.39;100.00;95640.34;4997914;28;20222;-73
2021/01/02 03:22:30;;;;;;;36.73;15.37;;;;;;;1.50;100.00;95642.78;4999250;28;20595;-73
2021/01/02 03:24:56;;;;;;;32.33;15.17;;;;;;;1.55;100.00;95644.00;4998457;28;20241;-74
2021/01/02 03:27:22;;;;;;;34.07;15.87;;;;;;;1.60;100.00;95639.22;4999912;28;20648;-73
2021/01/02 03:29:48;;;;;;;31.67;14.27;;;;;;;1.66;100.00;95628.31;4999149;28;20211;-73
2021/01/02 03:32:14;;;;;;;30.57;14.53;;;;;;;1.61;100.00;95640.06;4999314;28;20544;-74
2021/01/02 03:34:41;;;;;;;28.30;13.60;;;;;;;1.48;100.00;95640.34;4998704;28;20356;-73
2021/01/02 03:37:08;;;;;;;33.77;15.17;;;;;;;1.52;100.00;95636.50;4998930;28;20223;-74
2021/01/02 03:39:34;;;;;;;32.60;14.93;;;;;;;1.57;100.00;95634.31;4998740;28;20206;-74
2021/01/02 03:42:00;;;;;;;33.37;15.47;;;;;;;1.49;100.00;95641.97;4999506;28;20697;-73
2021/01/02 03:44:26;;;;;;;31.90;14.50;;;;;;;1.25;100.00;95641.56;4998718;28;20288;-73
2021/01/02 03:46:52;;;;;;;33.10;14.50;;;;;;;1.21;100.00;95632.41;4998405;28;20230;-73
2021/01/02 03:49:18;;;;;;;34.10;15.70;;;;;;;1.30;100.00;95626.41;4997796;28;20314;-73
2021/01/02 03:51:45;;;;;;;37.77;16.13;;;;;;;1.33;100.00;95620.94;4999098;28;20664;-73
2021/01/02 03:54:11;;;;;;;32.13;14.90;;;;;;;1.46;100.00;95626.66;4998582;28;20229;-73
2021/01/02 03:56:37;;;;;;;36.30;16.03;;;;;;;1.36;100.00;95635.41;4998030;28;20309;-74
2021/01/02 03:59:03;;;;;;;36.77;15.97;;;;;;;1.44;100.00;95628.59;4998495;28;20245;-74
2021/01/02 04:01:29;;;;;;;31.83;14.47;;;;;;;1.39;100.00;95633.38;4998654;28;20301;-73
2021/01/02 04:03:55;;;;;;;33.33;15.43;;;;;;;1.44;100.00;95628.59;4998148;28;20756;-73
2021/01/02 04:06:24;;;;;;;33.17;15.17;;;;;;;1.49;100.00;95634.19;4997764;28;20308;-73
2021/01/02 04:08:51;;;;;;;33.50;15.40;;;;;;;1.49;100.00;95630.75;4998323;28;20892;-73
2021/01/02 04:11:17;;;;;;;29.33;13.63;;;;;;;1.44;100.00;95638.13;4998311;28;21292;-73
2021/01/02 04:13:43;;;;;;;31.60;14.73;;;;;;;1.46;100.00;95644.84;4998299;28;21379;-74
2021/01/02 04:16:09;;;;;;;34.50;14.47;;;;;;;1.40;100.00;95649.75;4997776;28;20213;-74
2021/01/02 04:18:35;;;;;;;28.53;13.80;;;;;;;1.46;100.00;95644.03;4998757;28;20214;-73
2021/01/02 04:21:01;;;;;;;28.87;13.43;;;;;;;1.51;100.00;95647.03;4997925;28;20669;-74
2021/01/02 04:23:27;;;;;;;28.57;13.73;;;;;;;1.53;100.00;95645.13;4998288;28;20237;-73
2021/01/02 04:25:54;;;;;;;33.30;14.70;;;;;;;1.55;100.00;95643.19;4997376;28;20695;-74
2021/01/02 04:28:20;;;;;;;32.47;14.60;;;;;;;1.52;100.00;95641.69;4998218;28;20220;-74
2021/01/02 04:30:46;;;;;;;29.77;14.70;;;;;;;1.46;100.00;95642.25;4997953;28;20213;-73
2021/01/02 04:33:12;;;;;;;31.37;14.23;;;;;;;1.40;100.00;95634.19;4997926;28;20348;-73
2021/01/02 04:35:38;;;;;;;32.40;14.13;;;;;;;1.48;100.00;95644.72;4996905;28;20698;-73
2021/01/02 04:38:04;;;;;;;29.53;13.60;;;;;;;1.52;100.00;95641.69;4997494;28;20201;-73
2021/01/02 04:40:30;;;;;;;28.27;13.57;;;;;;;1.54;100.00;95636.38;4998700;28;20269;-73
2021/01/02 04:42:58;;;;;;;30.60;13.77;;;;;;;1.33;100.00;95633.91;4998183;28;20236;-73
2021/01/02 04:45:25;;;;;;;30.90;14.37;;;;;;;1.32;100.00;95637.47;4996632;28;20214;-73
2021/01/02 04:47:51;;;;;;;26.37;12.70;;;;;;;1.27;100.00;95636.22;4997712;28;21280;-73
2021/01/02 04:50:18;;;;;;;24.93;11.93;;;;;;;1.24;100.00;95637.31;4998149;28;20260;-73
2021/01/02 04:52:46;;;;;;;26.90;12.03;;;;;;;1.31;100.00;95637.59;4997649;28;20673;-74
2021/01/02 04:55:16;;;;;;;26.60;11.97;;;;;;;1.27;100.00;95646.59;4996584;28;20242;-73
2021/01/02 04:57:46;;;;;;;25.30;11.30;;;;;;;1.41;100.00;95646.22;4997292;28;20209;-73
2021/01/02 05:00:16;;;;;;;26.43;12.70;;;;;;;1.44;100.00;95651.94;4997218;28;20968;-73
2021/01/02 05:02:44;;;;;;;25.60;12.00;;;;;;;1.53;100.00;95650.31;4996306;28;20237;-73
2021/01/02 05:05:11;;;;;;;24.77;11.73;;;;;;;1.50;100.00;95641.03;4996666;28;20208;-74
2021/01/02 05:07:37;;;;;;;23.20;10.80;;;;;;;1.32;100.00;95644.44;4997308;28;20849;-73
2021/01/02 05:10:04;;;;;;;23.43;11.90;;;;;;;1.31;100.00;95648.81;4997275;28;20216;-73
2021/01/02 05:12:31;;;;;;;25.93;11.87;;;;;;;1.28;100.00;95637.88;4997315;28;20233;-73
2021/01/02 05:14:59;;;;;;;24.53;11.57;;;;;;;1.29;100.00;95635.13;4996933;28;20947;-73
2021/01/02 05:17:27;;;;;;;24.17;11.60;;;;;;;1.38;100.00;95638.69;4996462;28;20575;-74
2021/01/02 05:20:15;;;;;;;21.70;10.83;;;;;;;1.35;100.00;95634.59;4997046;28;20213;-73
2021/01/02 05:22:43;;;;;;;24.80;10.97;;;;;;;1.32;100.00;95628.84;4993942;28;20241;-74
2021/01/02 05:25:13;;;;;;;25.17;11.70;;;;;;;1.35;100.00;95639.78;4997242;28;20199;-74
2021/01/02 05:27:41;;;;;;;23.80;11.60;;;;;;;1.29;100.00;95636.94;4996380;28;20261;-74
2021/01/02 05:30:18;;;;;;;21.93;11.20;;;;;;;1.27;100.00;95641.41;4997078;28;20677;-73
2021/01/02 05:32:59;;;;;;;21.13;10.60;;;;;;;1.18;100.00;95644.81;4996869;28;20228;-74
2021/01/02 05:35:27;;;;;;;24.63;10.60;;;;;;;1.18;100.00;95647.41;4996037;28;20756;-73
2021/01/02 05:37:53;;;;;;;22.17;10.40;;;;;;;1.21;100.00;95647.97;4996971;28;20201;-73
2021/01/02 05:40:32;;;;;;;21.63;10.93;;;;;;;1.26;100.00;95651.00;4997317;28;20214;-73
2021/01/02 05:43:00;;;;;;;22.73;10.10;;;;;;;1.16;100.00;95649.34;4996466;28;20231;-74
2021/01/02 05:45:28;;;;;;;24.10;10.50;;;;;;;1.08;100.00;95644.00;4996850;28;20209;-73
2021/01/02 05:47:57;;;;;;;22.73;10.13;;;;;;;1.19;100.00;95639.50;4996441;28;20249;-73
2021/01/02 05:50:24;;;;;;;20.23;9.87;;;;;;;1.24;100.00;95652.88;4996523;28;20213;-73
2021/01/02 05:52:51;;;;;;;22.20;10.20;;;;;;;1.36;100.00;95664.78;4996768;28;20250;-74
2021/01/02 05:55:32;;;;;;;21.17;9.50;;;;;;;1.39;100.00;95672.31;4996806;28;20209;-74
2021/01/02 05:58:15;;;;;;;19.50;9.37;;;;;;;1.25;100.00;95664.91;4995323;28;20208;-73
2021/01/02 06:00:44;;;;;;;17.77;9.07;;;;;;;1.12;100.00;95662.72;4996765;28;20674;-74
2021/01/02 06:03:22;;;;;;;20.70;10.10;;;;;;;1.04;100.00;95662.56;4996542;28;20255;-73
2021/01/02 06:05:56;;;;;;;19.00;9.43;;;;;;;1.16;100.00;95658.88;4995879;28;20241;-73
2021/01/02 06:08:34;;;;;;;22.77;10.03;;;;;;;1.22;100.00;95659.16;4997110;28;20316;-74
2021/01/02 06:11:03;;;;;;;22.33;9.93;;;;;;;1.26;100.00;95666.56;4996517;28;20206;-73
2021/01/02 06:13:31;;;;;;;19.10;9.27;;;;;;;1.24;100.00;95671.06;4998779;28;20223;-73
2021/01/02 06:15:59;;;;;;;21.63;9.53;;;;;;;1.19;100.00;95662.84;4999462;28;20200;-73
2021/01/02 06:18:30;;;;;;;21.93;10.43;;;;;;;1.17;100.00;95665.72;5000581;28;20247;-74
2021/01/02 06:21:00;;;;;;;19.73;10.00;;;;;;;1.13;100.00;95662.56;5000210;28;20216;-74
2021/01/02 06:23:26;;;;;;;20.73;9.43;;;;;;;1.12;100.00;95667.91;5000824;28;20226;-73
2021/01/02 06:25:53;;;;;;;21.13;9.87;;;;;;;1.09;100.00;95670.78;4999270;28;20276;-74
2021/01/02 06:28:20;;;;;;;21.03;9.67;;;;;;;1.17;100.00;95671.72;5000408;28;20672;-74
2021/01/02 06:30:46;;;;;;;17.80;9.03;;;;;;;1.17;100.00;95668.31;4999867;28;20341;-74
2021/01/02 06:33:15;;;;;;;23.97;9.93;;;;;;;1.06;100.00;95665.81;5000636;28;20225;-74
2021/01/02 06:35:42;;;;;;;21.00;9.50;;;;;;;0.99;100.00;95667.31;4999250;28;20212;-73
2021/01/02 06:38:17;;;;;;;22.57;10.40;;;;;;;0.94;100.00;95661.72;4999483;28;20211;-73
2021/01/02 06:40:45;;;;;;;20.97;9.83;;;;;;;1.05;100.00;95656.44;4999386;28;20291;-73
2021/01/02 06:43:13;;;;;;;21.13;9.80;;;;;;;1.09;100.00;95673.34;4999615;28;21009;-73
2021/01/02 06:45:59;;;;;;;21.00;9.97;;;;;;;1.18;100.00;95672.56;4998855;28;20695;-73
2021/01/02 06:48:33;;;;;;;21.07;9.93;;;;;;;1.20;100.00;95674.88;4999725;28;20243;-74
2021/01/02 06:51:01;;;;;;;21.30;9.83;;;;;;;1.02;100.00;95661.88;4999067;28;20205;-73
2021/01/02 06:53:30;;;;;;;22.87;10.00;;;;;;;0.97;100.00;95664.88;4999379;28;20323;-74
2021/01/02 06:55:57;;;;;;;21.50;9.77;;;;;;;1.08;100.00;95664.75;4998349;28;20296;-73
2021/01/02 06:58:23;;;;;;;22.20;10.40;;;;;;;1.17;100.00;95657.94;5000205;28;20712;-73
2021/01/02 07:00:49;;;;;;;24.23;10.73;;;;;;;1.16;100.00;95658.88;4998958;28;20228;-73
2021/01/02 07:03:42;;;;;;;22.47;10.37;;;;;;;1.20;100.00;95661.91;5000301;28;20730;-73
2021/01/02 07:06:22;;;;;;;20.07;9.40;;;;;;;1.14;100.00;95660.81;4997815;28;20611;-73
2021/01/02 07:08:49;;;;;;;21.67;10.47;;;;;;;0.99;100.00;95662.13;4998915;28;20213;-73
2021/01/02 07:11:21;;;;;;;21.33;10.53;;;;;;;1.07;100.00;95664.88;4999084;28;20205;-74
2021/01/02 07:13:47;;;;;;;21.20;10.17;;;;;;;1.08;100.00;95663.94;4999428;28;20256;-74
2021/01/02 07:16:28;;;;;;;26.27;10.73;;;;;;;1.12;100.00;95662.72;4998714;28;20201;-73
2021/01/02 07:18:54;;;;;;;24.33;11.00;;;;;;;1.07;100.00;95670.06;4999610;28;20201;-73
2021/01/02 07:21:33;;;;;;;24.17;10.43;;;;;;;0.94;100.00;95674.69;4998962;28;20583;-73
2021/01/02 07:24:19;;;;;;;23.00;10.47;;;;;;;0.88;100.00;95664.84;4998484;28;20218;-73
2021/01/02 07:26:45;;;;;;;22.90;10.73;;;;;;;0.96;100.00;95677.97;4998135;28;20233;-74
2021/01/02 07:29:18;;;;;;;23.53;10.87;;;;;;;1.01;100.00;95673.22;4999439;28;20209;-74
2021/01/02 07:31:44;;;;;;;21.20;9.80;;;;;;;0.97;100.00;95666.63;4998763;28;20266;-73
2021/01/02 07:34:16;;;;;;;23.47;10.23;;;;;;;1.01;100.00;95663.66;4999941;28;20314;-72
2021/01/02 07:36:44;;;;;;;24.53;10.40;;;;;;;1.12;100.00;95667.91;4997005;28;20211;-73
2021/01/02 07:39:10;;;;;;;19.80;9.83;;;;;;;1.08;100.00;95669.13;4998404;28;20573;-73
2021/01/02 07:41:36;;;;;;;24.07;10.90;;;;;;;1.18;100.00;95673.38;4999614;28;20236;-72
2021/01/02 07:44:04;;;;;;;24.60;10.97;;;;;;;1.08;100.00;95671.72;4998943;28;20229;-74
2021/01/02 07:46:31;;;;;;;23.30;10.43;;;;;;;1.06;100.00;95673.59;4998034;28;20206;-74
2021/01/02 07:48:57;;;;;;;25.03;10.57;;;;;;;1.20;100.00;95677.47;4999005;28;20251;-74
2021/01/02 07:51:24;;;;;;;23.83;10.83;;;;;;;1.27;100.00;95673.41;4998055;28;20217;-73
2021/01/02 07:53:53;;;;;;;25.03;11.20;;;;;;;1.37;100.00;95674.19;4997543;28;20278;-73
2021/01/02 07:56:35;;;;;;;27.70;11.83;;;;;;;1.48;100.00;95681.06;4998502;28;20657;-73
2021/01/02 07:59:21;;;;;;;22.50;11.13;;;;;;;1.53;100.00;95687.47;4998241;28;20267;-73
2021/01/02 08:01:49;;;;;;;22.57;11.30;;;;;;;1.60;100.00;95687.75;4998306;28;20209;-73
2021/01/02 08:04:16;;;;;;;19.37;8.57;;;;;;;2.71;100.00;95677.28;4997892;28;20253;-73
2021/01/02 08:06:50;;;;;;;18.40;8.43;;;;;;;3.82;100.00;95672.44;4997324;28;20224;-72
2021/01/02 08:09:17;;;;;;;21.23;8.73;;;;;;;4.65;100.00;95665.69;4998352;28;20242;-72
2021/01/02 08:11:52;;;;;;;18.03;9.47;;;;;;;4.01;100.00;95667.88;4998460;28;20693;-74
2021/01/02 08:14:18;;;;;;;21.87;10.70;;;;;;;3.40;100.00;95671.41;4997686;28;20659;-73
2021/01/02 08:17:01;;;;;;;21.50;10.43;;;;;;;2.91;100.00;95672.78;4996877;28;20213;-74
2021/01/02 08:19:32;;;;;;;18.73;9.77;;;;;;;2.44;100.00;95672.03;4998691;28;20261;-73
2021/01/02 08:22:00;;;;;;;20.90;10.17;;;;;;;2.15;100.00;95677.44;4998206;28;20207;-73
2021/01/02 08:24:27;;;;;;;19.90;9.70;;;;;;;1.81;100.00;95678.88;4998138;28;20256;-73
2021/01/02 08:26:54;;;;;;;19.60;9.60;;;;;;;1.61;100.00;95684.22;4994385;28;20240;-73
2021/01/02 08:29:21;;;;;;;21.93;10.00;;;;;;;1.68;100.00;95686.13;4996978;28;20217;-73
2021/01/02 08:31:51;;;;;;;21.17;10.53;;;;;;;1.80;100.00;95680.63;4996511;28;20261;-73
2021/01/02 08:34:25;;;;;;;19.97;9.80;;;;;;;1.81;100.00;95684.06;4996895;28;20226;-74
2021/01/02 08:36:51;;;;;;;22.20;10.10;;;;;;;1.82;100.00;95686.50;4996489;28;20736;-74
2021/01/02 08:39:20;;;;;;;21.63;10.53;;;;;;;1.78;100.00;95678.31;4997961;28;20203;-73
2021/01/02 08:41:52;;;;;;;24.33;11.17;;;;;;;1.69;100.00;95686.94;4998269;28;20227;-72
2021/01/02 08:44:23;;;;;;;25.17;10.67;;;;;;;1.31;100.00;95685.13;4998037;28;20233;-74
2021/01/02 08:46:49;;;;;;;26.07;11.47;;;;;;;1.31;100.00;95679.94;4996390;28;20261;-73
2021/01/02 08:49:26;;;;;;;23.87;11.40;;;;;;;1.20;100.00;95682.66;4997350;28;20202;-73
2021/01/02 08:51:52;;;;;;;23.80;11.00;;;;;;;1.21;100.00;95675.72;4997673;28;20206;-73
2021/01/02 08:54:18;;;;;;;22.20;10.63;;;;;;;1.11;100.00;95684.41;4996726;28;20248;-73
2021/01/02 08:56:44;;;;;;;24.63;10.47;;;;;;;1.06;100.00;95678.78;4996513;28;20290;-73
2021/01/02 08:59:12;;;;;;;26.17;11.17;;;;;;;1.19;100.00;95675.00;4997162;28;20237;-73
2021/01/02 09:01:38;;;;;;;24.03;10.90;;;;;;;1.19;100.00;95677.59;4998137;28;20207;-73
2021/01/02 09:04:11;;;;;;;24.73;10.77;;;;;;;1.11;100.00;95682.66;4997299;28;20222;-73
2021/01/02 09:06:37;;;;;;;25.60;10.87;;;;;;;1.12;100.00;95680.88;4997305;28;20301;-73
2021/01/02 09:09:06;;;;;;;24.90;11.13;;;;;;;1.26;100.00;95683.88;4997291;28;20248;-74
2021/01/02 09:11:45;;;;;;;25.43;10.70;;;;;;;1.27;100.00;95676.00;4995052;28;20205;-73
2021/01/02 09:14:12;;;;;;;25.47;11.50;;;;;;;1.08;100.00;95669.94;4994598;28;20229;-73
2021/01/02 09:16:38;;;;;;;24.33;10.93;;;;;;;1.20;100.00;95664.50;4996082;28;20210;-73
2021/01/02 09:19:04;;;;;;;28.40;11.77;;;;;;;1.22;100.00;95667.78;4996010;28;20209;-73
2021/01/02 09:21:30;;;;;;;29.73;12.57;;;;;;;1.31;100.00;95674.75;4996866;28;20205;-73
2021/01/02 09:23:57;;;;;;;27.73;11.67;;;;;;;1.44;100.00;95690.03;4997358;28;20222;-73
2021/01/02 09:26:26;;;;;;;24.50;11.03;;;;;;;1.64;100.00;95686.50;4995123;28;20267;-73
2021/01/02 09:28:54;;;;;;;29.23;12.53;;;;;;;1.79;100.00;95688.56;4996281;28;20212;-73
2021/01/02 09:31:22;;;;;;;23.33;10.73;;;;;;;1.71;100.00;95692.81;4997156;28;20221;-74
2021/01/02 09:33:48;;;;;;;24.23;11.77;;;;;;;1.78;100.00;95689.50;4996290;28;20276;-73
2021/01/02 09:36:15;;;;;;;23.60;11.40;;;;;;;1.89;100.00;95697.97;4995689;28;20223;-73
2021/01/02 09:38:42;;;;;;;26.67;11.37;;;;;;;1.82;100.00;95690.91;4996878;28;20199;-73
2021/01/02 09:41:10;;;;;;;25.37;11.33;;;;;;;1.61;100.00;95692.81;4997313;28;20291;-73
2021/01/02 09:43:36;;;;;;;25.83;11.03;;;;;;;1.68;100.00;95700.84;4996591;28;20226;-73
2021/01/02 09:46:02;;;;;;;24.43;11.27;;;;;;;1.58;100.00;95692.25;4996026;28;20195;-73
2021/01/02 09:48:28;;;;;;;25.57;11.23;;;;;;;1.55;100.00;95693.34;4999420;28;20222;-73
2021/01/02 09:50:54;;;;;;;29.03;12.07;;;;;;;1.48;100.00;95689.66;5000736;28;20202;-73
2021/01/02 09:53:20;;;;;;;26.70;11.10;;;;;;;1.47;100.00;95689.78;5001589;28;20226;-73
2021/01/02 09:55:47;;;;;;;25.20;11.67;;;;;;;1.41;100.00;95683.38;5000301;28;20220;-73
2021/01/02 09:58:14;;;;;;;26.33;10.63;;;;;;;1.35;100.00;95683.91;5000535;28;21285;-73
2021/01/02 10:00:40;;;;;;;29.63;11.80;;;;;;;1.40;100.00;95668.75;5000490;28;20210;-73
2021/01/02 10:03:08;;;;;;;28.37;11.93;;;;;;;1.41;100.00;95670.41;5001453;28;20629;-72
2021/01/02 10:05:35;;;;;;;28.77;12.13;;;;;;;1.37;100.00;95673.41;4999853;28;20703;-73
2021/01/02 10:08:01;;;;;;;24.53;10.73;;;;;;;1.56;100.00;95669.03;4998117;28;20340;-74
2021/01/02 10:10:27;;;;;;;25.67;10.53;;;;;;;1.51;100.00;95668.59;5000893;28;20293;-73
2021/01/02 10:12:54;;;;;;;27.97;12.77;;;;;;;1.36;100.00;95671.75;4999748;28;20254;-72
2021/01/02 10:15:21;;;;;;;24.23;10.77;;;;;;;1.48;100.00;95674.09;4999200;28;20206;-72
2021/01/02 10:17:47;;;;;;;25.70;11.20;;;;;;;1.41;100.00;95673.00;5000625;28;20213;-73
2021/01/02 10:20:14;;;;;;;25.97;12.43;;;;;;;1.54;100.00;95678.75;5000353;28;20238;-74
2021/01/02 10:22:40;;;;;;;25.93;11.50;;;;;;;1.59;100.00;95680.91;5000320;28;20227;-74
2021/01/02 10:25:07;;;;;;;24.13;11.00;;;;;;;1.66;100.00;95684.63;5000222;28;20218;-74
2021/01/02 10:27:34;;;;;;;23.37;11.23;;;;;;;1.75;100.00;95674.22;4998593;28;20261;-73
2021/01/02 10:30:00;;;;;;;24.33;11.37;;;;;;;1.70;100.00;95671.22;4998809;28;20198;-74
2021/01/02 10:32:29;;;;;;;27.57;11.53;;;;;;;1.95;100.00;95657.66;5000084;28;20209;-73
2021/01/02 10:34:55;;;;;;;26.13;11.73;;;;;;;2.09;100.00;95652.03;5000003;28;20198;-74
2021/01/02 10:37:23;;;;;;;25.07;11.30;;;;;;;2.31;100.00;95641.28;4999048;28;20550;-73
2021/01/02 10:39:49;;;;;;;23.43;10.63;;;;;;;2.40;100.00;95631.66;4999696;28;20209;-74
2021/01/02 10:42:20;;;;;;;22.37;10.17;;;;;;;2.45;100.00;95636.44;4999393;28;20198;-73
2021/01/02 10:44:47;;;;;;;27.63;11.90;;;;;;;2.41;100.00;95648.09;4999555;28;20195;-73
2021/01/02 10:47:17;;;;;;;23.63;11.00;;;;;;;2.68;100.00;95645.53;4998921;28;20603;-74
2021/01/02 10:49:44;;;;;;;25.20;10.73;;;;;;;2.48;100.00;95641.34;4999684;28;20202;-73
2021/01/02 10:52:10;;;;;;;24.37;10.80;;;;;;;2.64;100.00;95641.56;4999674;28;20207;-73
2021/01/02 10:54:36;;;;;;;26.83;11.70;;;;;;;2.79;100.00;95640.13;4999005;28;20262;-74
2021/01/02 10:57:02;;;;;;;21.10;10.83;;;;;;;2.88;100.00;95641.84;4998718;28;20205;-73
2021/01/02 10:59:28;;;;;;;22.70;11.17;;;;;;;2.96;100.00;95637.56;4997755;28;20206;-73
2021/01/02 11:01:55;;;;;;;25.53;11.20;;;;;;;3.08;100.00;95631.19;4999349;28;20207;-73
2021/01/02 11:04:25;;;;;;;22.00;10.17;;;;;;;2.82;100.00;95625.03;4999201;28;20273;-73
2021/01/02 11:06:53;;;;;;;22.77;10.20;;;;;;;2.52;100.00;95620.13;4998699;28;20206;-73
2021/01/02 11:09:20;;;;;;;24.37;10.50;;;;;;;2.54;100.00;95627.78;4998633;28;20215;-72
2021/01/02 11:11:46;;;;;;;23.97;10.77;;;;;;;2.60;100.00;95622.81;4998518;28;20322;-73
2021/01/02 11:14:13;;;;;;;24.37;10.93;;;;;;;2.68;100.00;95616.91;4999522;28;20227;-72
2021/01/02 11:16:41;;;;;;;20.67;8.97;;;;;;;2.52;100.00;95620.13;4998786;28;20207;-72
2021/01/02 11:19:10;;;;;;;23.47;10.13;;;;;;;2.59;100.00;95604.78;4998339;28;20296;-73
2021/01/02 11:21:37;;;;;;;22.43;10.17;;;;;;;2.34;100.00;95604.63;4998649;28;20289;-73
2021/01/02 11:24:04;;;;;;;23.67;11.43;;;;;;;2.41;100.00;95601.31;4998724;28;20231;-72
2021/01/02 11:26:30;;;;;;;23.13;10.23;;;;;;;2.35;100.00;95595.84;4997937;28;20217;-73
2021/01/02 11:28:56;;;;;;;25.07;11.40;;;;;;;2.31;100.00;95599.72;4997501;28;20713;-74
2021/01/02 11:31:28;;;;;;;22.90;10.17;;;;;;;2.17;100.00;95597.56;4998276;28;20341;-73
2021/01/02 11:33:54;;;;;;;31.50;12.70;;;;;;;2.18;100.00;95583.63;4996858;28;20301;-72